Aeroporto :
LOGIN :

Iscrizione | Disclaimer

   EN    FR    IT 

 










Sommario :    VFR   VFR Marginale   IFR   IFR Intensivo   IFR Molto Intensivo
Visibilità : 
Base nubi : 
>= 8 km
>= 3000ft
5 / 8 km
1000 / 3000 ft
1500m / 5 km
500 / 1000 ft
800 / 1500m
200 / 500 ft
< 800m
< 200 ft
Simboli :   Temporali  Nebbia  Neve Forte  Precipitazioni Forti  Vento > 20 kt
SIGMETs :   Varie  Temporali  Ghiacco  Turbolenza  Onda orograficha  Ceneri Vulcaniche






- Altitudine del aeroporto : 526 ft
- Codice IATA : LTN


EGGW - London Luton

ULTIMO METAR :
  • 141650Z AUTO 05006KT 8000 -RA BKN005 OVC014 19/18 Q1014

METARs OBSOLETI :
  • 141620Z AUTO VRB02KT 8000 -RA BKN008 OVC011 19/18 Q1014
  • 141550Z AUTO 34004KT 9000 -RA FEW007 BKN012 BKN030 19/17 Q1014
  • 141520Z AUTO 35004KT 310V040 7000 -RA BKN005/// OVC011/// //////TCU 18/17 Q1014
  • 141450Z AUTO 01007KT 340V040 9999 OVC007/// //////TCU 19/17 Q1014
  • 141420Z AUTO 01007KT 340V050 8000 OVC005/// //////TCU 18/17 Q1014

TAF TAF EGGW
Valido dal 14 a 12 ore il 15 a 12 ore UTC


141057Z 1412/1512 01008KT 4000 BR BKN003
BECMG 1412/1414 7000 NSW BKN008
TEMPO 1412/1512 SHRA
PROB40
TEMPO 1412/1424 3000 +SHRA +TSRA
TEMPO 1414/1420 BKN015
BECMG 1421/1424 3000 BR
PROB40 1423/1508 0300 FG BKN000
PROB30
TEMPO 1504/1512 +SHRA +TSRA
ATIS : +44 1582 395 204



MetMap, La meteo Aeronautica in un colpo d'occhio ! - Copyright ORBIFLY Dicembre 2007 - Disclaimer

ORBIFLY MET'MAP TEAM :

Programmazione e sviluppo : Alexandra Zaïnal
Concezione : Baudouin d'Aumeries
Aiuto per la programmazione : Marc-Olivier Méhu
Supporto tecnico e logistico : Manuel Goepfert
Aiuto per la traduzione : Arnaldo La Scala

Contatto : metmap@orbifly.com




FONTI E CREDITI :

   NOAA